Current Weather

Salzburg

Salzburg, Austria (LOWS)

Report from: Friday, April 19, 2024 11:20 AM CEST
Current time: Friday, April 19, 2024 11:40 AM CEST

Nearby weather – Weather history – Daily summaries
Weather forecast

Temperature6.0°C (42.8°F)
Wind chill3.0°C (37.4°F)
Dew point3.0°C (37.4°F)
Winds 8 kts (4.1 m/s, 9.2 mph) Vrb
Winds variableWinds variable from West-Southwest (250°) to Northwest (320°)
Visibility6.2 mi. (10 km)
Clouds Few clouds 1,300 ft. (396 m)
Scattered clouds 2,200 ft. (671 m)
Ceiling: Broken clouds 3,600 ft. (1,097 m)
Altimeter30.00 in.Hg (1016 mB)
Relative humidity81 %
Density altitude-1,067 ft. (-325 m)
Remarks Fully automated report
No significant changes expected in the next two hours
Flight conditions Visual Meteorological Conditions
Raw dataLOWS 190920Z AUTO 29008KT 250V320 9999 FEW013 SCT022 BKN036 06/03 Q1016 NOSIG
An error has occurred. This application may no longer respond until reloaded. Reload 🗙